createdAt,value
2022-07-29T00:01:44.745Z,4.20
2022-07-29T00:04:12.663Z,5.05
2022-07-29T00:06:39.739Z,3.20
2022-07-29T00:09:06.713Z,5.28
2022-07-29T00:11:33.621Z,5.83
2022-07-29T00:14:00.313Z,6.00
2022-07-29T00:16:27.016Z,5.28
2022-07-29T00:18:53.720Z,4.95
2022-07-29T00:21:20.465Z,6.07
2022-07-29T00:23:47.080Z,6.30
2022-07-29T00:26:13.707Z,4.30
2022-07-29T00:28:40.481Z,2.92
2022-07-29T00:31:07.117Z,6.03
2022-07-29T00:33:33.766Z,3.70
2022-07-29T00:36:00.431Z,4.60
2022-07-29T00:38:27.036Z,5.28
2022-07-29T00:40:53.888Z,8.18
2022-07-29T00:43:20.559Z,3.78
2022-07-29T00:45:47.346Z,2.88
2022-07-29T00:48:14.995Z,6.00
2022-07-29T00:50:41.709Z,3.80
2022-07-29T00:53:09.331Z,4.97
2022-07-29T00:55:36.492Z,4.30
2022-07-29T00:58:03.589Z,3.80
2022-07-29T01:00:31.059Z,3.70
2022-07-29T01:02:57.822Z,3.75
2022-07-29T01:05:48.537Z,8.02
2022-07-29T01:08:16.255Z,8.07
2022-07-29T01:10:44.879Z,4.60
2022-07-29T01:13:12.786Z,4.03
2022-07-29T01:15:49.006Z,6.15
2022-07-29T01:18:29.709Z,6.72
2022-07-29T01:21:56.233Z,6.65
2022-07-29T01:24:40.656Z,6.20
2022-07-29T01:27:18.388Z,5.53
2022-07-29T01:29:58.245Z,5.15
2022-07-29T01:32:29.569Z,4.50
2022-07-29T01:35:11.708Z,5.15
2022-07-29T01:37:46.155Z,3.65
2022-07-29T01:40:39.782Z,5.23
2022-07-29T01:43:33.691Z,4.97
2022-07-29T01:46:05.303Z,4.72
2022-07-29T01:48:40.763Z,4.53
2022-07-29T01:51:17.505Z,5.50
2022-07-29T01:54:00.204Z,4.67
2022-07-29T01:56:31.979Z,7.43
2022-07-29T01:58:59.435Z,3.97
2022-07-29T02:01:28.245Z,4.43
2022-07-29T02:03:57.735Z,6.47
2022-07-29T02:06:25.520Z,7.20
2022-07-29T02:08:54.632Z,4.65
2022-07-29T02:11:21.297Z,5.65
2022-07-29T02:13:50.324Z,6.28
2022-07-29T02:16:19.893Z,3.70
2022-07-29T02:18:48.843Z,3.67
2022-07-29T02:21:20.436Z,5.43
2022-07-29T02:23:51.113Z,5.75
2022-07-29T02:26:20.278Z,6.35
2022-07-29T02:28:48.324Z,4.85
2022-07-29T02:31:17.277Z,3.17
2022-07-29T02:33:44.769Z,4.07
2022-07-29T02:36:12.225Z,4.35
2022-07-29T02:38:51.187Z,5.00
2022-07-29T02:41:30.623Z,5.40
2022-07-29T02:44:03.461Z,6.43
2022-07-29T02:46:36.473Z,3.90
2022-07-29T02:49:11.183Z,3.97
2022-07-29T02:52:12.549Z,6.80
2022-07-29T02:55:09.767Z,5.72
2022-07-29T02:57:55.427Z,4.63
2022-07-29T03:00:24.554Z,3.70
2022-07-29T03:02:55.076Z,6.28
2022-07-29T03:05:23.302Z,4.75
2022-07-29T03:07:55.516Z,7.30
2022-07-29T03:10:22.727Z,5.30
2022-07-29T03:12:49.761Z,4.65
2022-07-29T03:15:17.241Z,3.55
2022-07-29T03:17:44.627Z,4.70
2022-07-29T03:20:12.332Z,5.70
2022-07-29T03:22:47.921Z,5.10
2022-07-29T03:25:16.943Z,5.68
2022-07-29T03:27:44.566Z,5.20
2022-07-29T03:30:12.761Z,5.88
2022-07-29T03:32:45.093Z,3.30
2022-07-29T03:35:11.864Z,3.83
2022-07-29T03:37:38.525Z,5.57
2022-07-29T03:40:08.613Z,6.35
2022-07-29T03:42:40.672Z,4.32
2022-07-29T03:45:13.245Z,5.47
2022-07-29T03:47:50.320Z,4.90
2022-07-29T03:50:20.331Z,4.03
2022-07-29T03:52:48.503Z,3.65
2022-07-29T03:55:16.130Z,7.43
2022-07-29T03:57:43.598Z,4.15
2022-07-29T04:00:11.111Z,5.90
2022-07-29T04:02:39.276Z,6.80
2022-07-29T04:05:06.305Z,7.35
2022-07-29T04:07:32.918Z,5.57
2022-07-29T04:09:59.524Z,7.35
2022-07-29T04:12:26.133Z,4.37
2022-07-29T04:14:52.841Z,5.65
2022-07-29T04:17:19.436Z,8.20
2022-07-29T04:19:46.101Z,3.35
2022-07-29T04:22:12.727Z,5.45
2022-07-29T04:24:42.854Z,4.60
2022-07-29T04:27:10.942Z,4.82
2022-07-29T04:29:37.536Z,4.65
2022-07-29T04:32:24.013Z,6.10
2022-07-29T04:34:50.617Z,6.85
2022-07-29T04:37:17.247Z,4.63
2022-07-29T04:39:43.928Z,6.30
2022-07-29T04:42:10.577Z,5.18
2022-07-29T04:44:39.725Z,6.07
2022-07-29T04:47:09.709Z,7.25
2022-07-29T04:49:39.254Z,4.87
2022-07-29T04:52:06.721Z,5.35
2022-07-29T04:54:33.952Z,5.80
2022-07-29T04:57:00.574Z,4.13
2022-07-29T04:59:27.629Z,8.15
2022-07-29T05:01:54.378Z,5.87
2022-07-29T05:04:21.312Z,8.50
2022-07-29T05:06:48.393Z,6.07
2022-07-29T05:09:15.191Z,4.80
2022-07-29T05:11:41.807Z,5.78
2022-07-29T05:14:08.437Z,5.60
2022-07-29T05:16:35.164Z,6.40
2022-07-29T05:19:01.996Z,4.88
2022-07-29T05:21:28.587Z,5.53
2022-07-29T05:23:55.284Z,3.63
2022-07-29T05:26:22.137Z,3.83
2022-07-29T05:28:48.927Z,5.88
2022-07-29T05:31:16.324Z,4.45
2022-07-29T05:33:43.689Z,5.38
2022-07-29T05:36:10.435Z,4.30
2022-07-29T05:38:37.347Z,6.07
2022-07-29T05:41:05.442Z,6.13
2022-07-29T05:43:32.700Z,4.75
2022-07-29T05:45:59.875Z,5.15
2022-07-29T05:48:26.611Z,5.72
2022-07-29T05:50:53.406Z,3.97
2022-07-29T05:53:20.721Z,6.88
2022-07-29T05:55:48.839Z,4.40
2022-07-29T05:58:15.736Z,4.20
2022-07-29T06:00:42.392Z,5.22
2022-07-29T06:03:09.163Z,5.47
2022-07-29T06:05:35.850Z,5.38
2022-07-29T06:08:03.849Z,5.93
2022-07-29T06:10:30.515Z,6.68
2022-07-29T06:12:57.403Z,5.68
2022-07-29T06:15:24.059Z,5.80
2022-07-29T06:18:00.307Z,8.15
2022-07-29T06:20:31.854Z,10.70
2022-07-29T06:22:59.149Z,8.10
2022-07-29T06:25:25.985Z,5.68
2022-07-29T06:27:53.125Z,6.20
2022-07-29T06:30:19.821Z,7.00
2022-07-29T06:32:46.510Z,5.32
2022-07-29T06:35:39.193Z,5.15
2022-07-29T06:38:00.025Z,5.00
2022-07-29T06:40:45.508Z,5.87
2022-07-29T06:43:12.294Z,4.90
2022-07-29T06:45:42.053Z,6.30
2022-07-29T06:48:09.496Z,6.65
2022-07-29T06:50:36.238Z,4.97
2022-07-29T06:53:02.879Z,8.47
2022-07-29T06:55:29.478Z,7.53
2022-07-29T06:57:56.135Z,4.85
2022-07-29T07:00:22.838Z,5.45
2022-07-29T07:02:49.548Z,8.05
2022-07-29T07:05:16.184Z,4.50
2022-07-29T07:07:42.775Z,6.68
2022-07-29T07:10:09.691Z,9.68
2022-07-29T07:12:36.328Z,5.45
2022-07-29T07:15:03.279Z,6.47
2022-07-29T07:17:29.888Z,4.83
2022-07-29T07:19:56.486Z,6.82
2022-07-29T07:22:23.175Z,8.73
2022-07-29T07:24:49.831Z,5.47
2022-07-29T07:27:16.447Z,8.07
2022-07-29T07:29:44.308Z,7.87
2022-07-29T07:32:11.444Z,5.88
2022-07-29T07:34:38.888Z,5.00
2022-07-29T07:37:06.243Z,6.55
2022-07-29T07:39:32.917Z,7.82
2022-07-29T07:41:59.756Z,7.53
2022-07-29T07:44:26.456Z,10.07
2022-07-29T07:46:53.388Z,7.32
2022-07-29T07:49:21.633Z,5.78
2022-07-29T07:51:50.812Z,11.32
2022-07-29T07:54:18.637Z,6.03
2022-07-29T07:56:49.868Z,6.45
2022-07-29T07:59:19.736Z,9.82
2022-07-29T08:01:48.193Z,5.22
2022-07-29T08:04:26.888Z,5.75
2022-07-29T08:06:55.769Z,10.60
2022-07-29T08:09:29.275Z,7.00
2022-07-29T08:11:56.900Z,7.22
2022-07-29T08:14:23.548Z,5.43
2022-07-29T08:16:50.305Z,6.30
2022-07-29T08:19:17.083Z,6.70
2022-07-29T08:21:43.754Z,6.32
2022-07-29T08:24:29.152Z,7.38
2022-07-29T08:26:55.764Z,6.53
2022-07-29T08:29:22.376Z,8.45
2022-07-29T08:31:49.178Z,8.07
2022-07-29T08:34:15.891Z,5.90
2022-07-29T08:36:42.580Z,15.18
2022-07-29T08:39:09.172Z,7.22
2022-07-29T08:41:36.295Z,10.50
2022-07-29T08:44:03.043Z,8.60
2022-07-29T08:46:29.685Z,10.27
2022-07-29T08:48:56.597Z,6.90
2022-07-29T08:51:25.041Z,6.90
2022-07-29T08:53:51.940Z,8.68
2022-07-29T08:56:20.051Z,8.98
2022-07-29T08:58:49.876Z,8.20
2022-07-29T09:01:23.560Z,5.65
2022-07-29T09:04:05.500Z,8.07
2022-07-29T09:06:35.341Z,4.32
2022-07-29T09:09:02.290Z,7.72
2022-07-29T09:11:29.462Z,8.40
2022-07-29T09:13:56.160Z,7.63
2022-07-29T09:16:50.889Z,6.90
2022-07-29T09:19:21.490Z,11.15
2022-07-29T09:22:00.267Z,8.85
2022-07-29T09:24:35.316Z,9.25
2022-07-29T09:27:02.851Z,6.60
2022-07-29T09:29:33.235Z,8.30
2022-07-29T09:32:08.872Z,10.00
2022-07-29T09:34:35.620Z,6.30
2022-07-29T09:37:02.996Z,9.27
2022-07-29T09:39:29.900Z,9.52
2022-07-29T09:41:59.470Z,7.40
2022-07-29T09:44:26.819Z,10.55
2022-07-29T09:47:08.069Z,9.98
2022-07-29T09:49:36.716Z,8.73
2022-07-29T09:55:23.631Z,9.48
2022-07-29T09:58:23.576Z,14.70
2022-07-29T10:00:55.543Z,9.75
2022-07-29T10:03:25.602Z,8.50
2022-07-29T10:06:16.782Z,6.57
2022-07-29T10:09:13.451Z,8.52
2022-07-29T10:36:00.741Z,10.93
2022-07-29T10:38:40.818Z,8.77
2022-07-29T10:41:27.716Z,15.18
2022-07-29T10:44:06.345Z,9.23
2022-07-29T10:46:39.225Z,10.80
2022-07-29T10:49:25.231Z,9.30
2022-07-29T10:52:07.226Z,9.00
2022-07-29T10:54:48.543Z,13.68
2022-07-29T10:57:53.905Z,12.25
2022-07-29T11:00:28.815Z,7.32
2022-07-29T11:02:57.522Z,11.25
2022-07-29T11:05:25.416Z,9.85
2022-07-29T11:08:19.486Z,9.77
2022-07-29T11:10:46.868Z,7.47
2022-07-29T11:13:44.313Z,11.48
2022-07-29T11:16:11.301Z,9.68
2022-07-29T11:19:01.447Z,11.10
2022-07-29T11:21:53.774Z,8.75
2022-07-29T11:27:18.166Z,12.50
2022-07-29T11:29:55.113Z,11.43
2022-07-29T11:32:24.850Z,9.60
2022-07-29T11:35:17.169Z,6.28
2022-07-29T11:37:52.472Z,9.82
2022-07-29T11:40:22.897Z,9.90
2022-07-29T11:42:52.181Z,11.05
2022-07-29T11:45:42.818Z,9.38
2022-07-29T11:48:29.223Z,13.20
2022-07-29T11:50:59.193Z,15.90
2022-07-29T11:53:25.989Z,8.77
2022-07-29T11:55:58.383Z,11.63
2022-07-29T11:58:26.171Z,7.82
2022-07-29T12:00:53.263Z,7.10
2022-07-29T12:03:35.093Z,10.82
2022-07-29T12:06:04.294Z,5.70
2022-07-29T12:08:31.081Z,11.32
2022-07-29T12:10:57.744Z,13.77
2022-07-29T12:13:37.255Z,9.60
2022-07-29T12:16:05.063Z,7.97
2022-07-29T12:18:32.498Z,10.20
2022-07-29T12:21:03.403Z,12.75
2022-07-29T12:23:34.739Z,12.95
2022-07-29T12:26:07.434Z,8.35
2022-07-29T12:28:39.555Z,9.98
2022-07-29T12:31:06.389Z,8.15
2022-07-29T12:33:35.922Z,7.15
2022-07-29T12:36:06.889Z,9.85
2022-07-29T12:38:41.152Z,13.35
2022-07-29T12:41:07.898Z,9.00
2022-07-29T12:43:34.525Z,11.73
2022-07-29T12:46:14.166Z,14.65
2022-07-29T12:48:42.679Z,8.43
2022-07-29T12:51:12.428Z,6.60
2022-07-29T12:53:39.557Z,14.57
2022-07-29T12:56:26.582Z,9.68
2022-07-29T12:58:54.143Z,14.63
2022-07-29T13:01:21.853Z,7.40
2022-07-29T13:03:57.391Z,9.80
2022-07-29T13:06:33.929Z,10.90
2022-07-29T13:09:08.030Z,9.13
2022-07-29T13:11:36.980Z,7.55
2022-07-29T13:14:07.017Z,7.78
2022-07-29T13:16:34.159Z,10.98
2022-07-29T13:19:13.586Z,9.07
2022-07-29T13:21:40.510Z,8.20
2022-07-29T13:24:08.049Z,7.47
2022-07-29T13:26:35.618Z,9.25
2022-07-29T13:29:02.383Z,9.60
2022-07-29T13:31:29.066Z,10.38
2022-07-29T13:33:56.121Z,9.40
2022-07-29T13:36:25.849Z,10.77
2022-07-29T13:38:52.513Z,14.95
2022-07-29T13:41:19.173Z,8.05
2022-07-29T13:43:45.789Z,7.00
2022-07-29T13:46:16.830Z,12.98
2022-07-29T13:48:43.586Z,8.27
2022-07-29T13:51:10.262Z,10.25
2022-07-29T13:53:36.868Z,11.70
2022-07-29T13:56:03.799Z,10.43
2022-07-29T13:58:30.416Z,9.07
2022-07-29T14:00:57.786Z,12.45
2022-07-29T14:03:25.355Z,7.82
2022-07-29T14:05:52.180Z,13.40
2022-07-29T14:08:19.236Z,8.68
2022-07-29T14:10:45.846Z,8.00
2022-07-29T14:13:24.479Z,10.35
2022-07-29T14:15:52.591Z,9.40
2022-07-29T14:18:19.284Z,9.05
2022-07-29T14:20:46.018Z,6.80
2022-07-29T14:23:12.992Z,13.65
2022-07-29T14:25:42.886Z,10.63
2022-07-29T14:28:11.481Z,11.67
2022-07-29T14:30:39.486Z,7.10
2022-07-29T14:33:20.800Z,9.52
2022-07-29T14:43:35.378Z,9.63
2022-07-29T14:46:07.954Z,6.72
2022-07-29T14:48:35.037Z,13.05
2022-07-29T14:51:04.736Z,8.55
2022-07-29T14:53:32.747Z,12.32
2022-07-29T14:56:10.335Z,5.20
2022-07-29T14:58:51.541Z,7.97
2022-07-29T15:01:19.332Z,6.85
2022-07-29T15:03:46.686Z,8.55
2022-07-29T15:06:13.322Z,9.63
2022-07-29T15:08:39.993Z,7.57
2022-07-29T15:11:06.598Z,10.40
2022-07-29T15:13:34.703Z,11.38
2022-07-29T15:16:01.427Z,10.80
2022-07-29T15:18:28.024Z,8.77
2022-07-29T15:20:54.632Z,11.73
2022-07-29T15:23:21.315Z,6.32
2022-07-29T15:25:47.972Z,6.93
2022-07-29T15:28:14.655Z,8.68
2022-07-29T15:30:41.862Z,8.27
2022-07-29T15:33:12.747Z,8.88
2022-07-29T15:35:39.946Z,5.70
2022-07-29T15:38:08.144Z,5.80
2022-07-29T15:40:35.013Z,6.55
2022-07-29T15:43:31.821Z,9.07
2022-07-29T15:50:07.473Z,7.82
2022-07-29T15:52:34.142Z,10.30
2022-07-29T15:55:00.723Z,5.82
2022-07-29T15:57:27.346Z,8.13
2022-07-29T15:59:54.126Z,9.70
2022-07-29T16:02:20.802Z,7.80
2022-07-29T16:04:47.686Z,8.38
2022-07-29T16:07:14.568Z,7.55
2022-07-29T16:09:41.906Z,7.53
2022-07-29T16:12:15.089Z,8.43
2022-07-29T16:14:45.038Z,4.50
2022-07-29T16:20:14.757Z,6.25
2022-07-29T16:23:27.244Z,7.15
2022-07-29T16:29:19.302Z,6.53
2022-07-29T16:31:45.935Z,7.28
2022-07-29T16:34:12.589Z,6.40
2022-07-29T16:36:39.207Z,8.48
2022-07-29T16:39:05.864Z,6.37
2022-07-29T16:41:35.467Z,9.00
2022-07-29T16:44:02.420Z,8.60
2022-07-29T16:46:29.139Z,7.22
2022-07-29T16:48:56.718Z,10.18
2022-07-29T16:51:23.418Z,10.53
2022-07-29T16:53:50.564Z,5.68
2022-07-29T16:56:17.379Z,6.70
2022-07-29T16:58:44.206Z,5.88
2022-07-29T17:01:47.496Z,6.60
2022-07-29T17:10:52.376Z,7.28
2022-07-29T17:13:19.079Z,8.40
2022-07-29T17:15:45.805Z,6.13
2022-07-29T17:18:13.160Z,7.45
2022-07-29T17:20:41.473Z,7.75
2022-07-29T17:23:08.378Z,9.57
2022-07-29T17:25:35.111Z,9.70
2022-07-29T17:28:01.865Z,8.98
2022-07-29T17:30:29.511Z,9.07
2022-07-29T17:32:56.299Z,7.03
2022-07-29T17:35:41.724Z,7.68
2022-07-29T17:38:08.362Z,5.30
2022-07-29T17:40:34.987Z,8.05
2022-07-29T17:43:01.619Z,8.13
2022-07-29T17:45:49.334Z,7.70
2022-07-29T17:48:14.780Z,6.68
2022-07-29T17:50:41.423Z,7.32
2022-07-29T17:53:15.898Z,8.68
2022-07-29T17:55:46.374Z,12.38
2022-07-29T17:58:13.155Z,9.30
2022-07-29T18:00:39.947Z,11.27
2022-07-29T18:03:07.054Z,8.45
2022-07-29T18:05:33.785Z,9.32
2022-07-29T18:08:00.841Z,8.25
2022-07-29T18:10:27.596Z,9.00
2022-07-29T18:12:54.228Z,8.15
2022-07-29T18:15:20.921Z,9.73
2022-07-29T18:17:56.714Z,7.80
2022-07-29T18:20:27.739Z,6.10
2022-07-29T18:22:54.412Z,11.18
2022-07-29T18:25:21.204Z,6.85
2022-07-29T18:27:48.183Z,7.68
2022-07-29T18:30:15.144Z,10.68
2022-07-29T18:32:59.091Z,10.30
2022-07-29T18:35:30.223Z,8.25
2022-07-29T18:38:01.284Z,6.90
2022-07-29T18:40:29.682Z,7.30
2022-07-29T18:42:56.390Z,10.45
2022-07-29T18:45:28.290Z,9.70
2022-07-29T18:47:56.008Z,7.88
2022-07-29T18:50:28.916Z,9.73
2022-07-29T18:52:58.507Z,12.02
2022-07-29T18:55:26.026Z,9.25
2022-07-29T18:57:54.117Z,6.88
2022-07-29T19:00:23.799Z,13.57
2022-07-29T19:02:50.688Z,8.48
2022-07-29T19:05:17.435Z,10.25
2022-07-29T19:07:44.052Z,9.07
2022-07-29T19:10:11.187Z,10.75
2022-07-29T19:12:37.843Z,6.68
2022-07-29T19:15:04.753Z,8.77
2022-07-29T19:17:31.357Z,8.23
2022-07-29T19:19:58.056Z,13.65
2022-07-29T19:22:24.762Z,9.20
2022-07-29T19:24:51.478Z,9.80
2022-07-29T19:27:18.149Z,18.67
2022-07-29T19:29:44.917Z,9.82
2022-07-29T19:32:11.706Z,9.32
2022-07-29T19:34:38.453Z,13.52
2022-07-29T19:37:05.279Z,8.57
2022-07-29T19:39:35.622Z,8.70
2022-07-29T19:42:03.445Z,7.32
2022-07-29T19:44:30.365Z,12.23
2022-07-29T19:46:59.348Z,7.90
2022-07-29T19:49:26.190Z,10.85
2022-07-29T19:51:53.320Z,7.82
2022-07-29T19:54:20.705Z,11.10
2022-07-29T19:56:47.432Z,8.60
2022-07-29T19:59:14.669Z,12.77
2022-07-29T20:01:43.557Z,13.13
2022-07-29T20:04:10.344Z,15.20
2022-07-29T20:06:37.006Z,11.50
2022-07-29T20:09:05.648Z,11.35
2022-07-29T20:11:36.536Z,12.00
2022-07-29T20:14:05.375Z,11.48
2022-07-29T20:16:32.371Z,10.73
2022-07-29T20:19:01.821Z,12.60
2022-07-29T20:21:28.591Z,13.55
2022-07-29T20:23:56.704Z,12.60
2022-07-29T20:26:23.914Z,11.40
2022-07-29T20:28:50.807Z,16.13
2022-07-29T20:31:18.662Z,10.05
2022-07-29T20:33:45.513Z,13.80
2022-07-29T20:36:12.339Z,12.48
2022-07-29T20:38:41.472Z,13.43
2022-07-29T20:41:08.151Z,8.88
2022-07-29T20:43:39.109Z,13.50
2022-07-29T20:46:08.305Z,11.73
2022-07-29T20:48:35.004Z,9.75
2022-07-29T20:51:01.668Z,13.18
2022-07-29T20:53:28.402Z,13.93
2022-07-29T20:55:55.151Z,8.88
2022-07-29T20:58:21.910Z,12.57
2022-07-29T21:00:50.322Z,14.05
2022-07-29T21:03:18.336Z,12.65
2022-07-29T21:05:45.039Z,12.25
2022-07-29T21:08:12.279Z,15.85
2022-07-29T21:10:43.184Z,15.57
2022-07-29T21:13:13.941Z,13.00
2022-07-29T21:15:45.863Z,11.60
2022-07-29T21:18:32.836Z,8.70
2022-07-29T21:21:04.383Z,11.90
2022-07-29T21:23:31.574Z,16.63
2022-07-29T21:25:58.417Z,17.25
2022-07-29T21:28:29.383Z,12.75
2022-07-29T21:30:59.209Z,10.48
2022-07-29T21:33:28.055Z,11.43
2022-07-29T21:38:42.276Z,14.27
2022-07-29T21:43:59.859Z,13.93
2022-07-29T21:46:28.259Z,11.77
2022-07-29T21:48:55.086Z,11.02
2022-07-29T21:51:21.779Z,11.38
2022-07-29T21:53:48.563Z,15.52
2022-07-29T22:01:49.203Z,11.07
2022-07-29T22:04:15.905Z,15.90
2022-07-29T22:06:42.574Z,10.82
2022-07-29T22:09:09.208Z,12.50
2022-07-29T22:11:36.695Z,13.93
2022-07-29T22:14:04.732Z,10.18
2022-07-29T22:16:31.674Z,10.85
2022-07-29T22:18:58.424Z,10.38
2022-07-29T22:21:25.052Z,9.15
2022-07-29T22:23:55.946Z,11.63
2022-07-29T22:26:22.634Z,10.67
2022-07-29T22:28:50.026Z,15.13
2022-07-29T22:31:16.925Z,16.55
2022-07-29T22:36:49.233Z,14.77
2022-07-29T22:39:19.792Z,14.90
2022-07-29T22:41:46.410Z,8.98
2022-07-29T22:44:13.008Z,9.30
2022-07-29T22:50:22.613Z,10.60
2022-07-29T22:55:34.768Z,10.75
2022-07-29T23:01:06.168Z,10.82
2022-07-29T23:03:42.019Z,10.88
2022-07-29T23:06:31.472Z,9.93
2022-07-29T23:09:01.133Z,11.55
2022-07-29T23:11:27.765Z,12.90
2022-07-29T23:13:54.411Z,11.60
2022-07-29T23:16:26.425Z,10.90
2022-07-29T23:21:54.091Z,13.52
2022-07-29T23:24:20.709Z,10.50
2022-07-29T23:26:47.373Z,11.80
2022-07-29T23:29:13.972Z,16.15
2022-07-29T23:31:46.786Z,14.00
2022-07-29T23:34:15.016Z,11.23
2022-07-29T23:36:42.252Z,11.15
2022-07-29T23:39:11.481Z,13.30
2022-07-29T23:41:38.365Z,8.77
2022-07-29T23:44:05.216Z,11.07
2022-07-29T23:46:31.876Z,11.35
2022-07-29T23:48:58.700Z,13.18
2022-07-29T23:51:25.395Z,16.05
2022-07-29T23:53:53.405Z,12.07
2022-07-29T23:56:20.993Z,10.97
2022-07-29T23:58:47.787Z,18.20
